createdAt,value
2023-12-28T00:00:54.454Z,31.40
2023-12-28T00:03:43.440Z,35.30
2023-12-28T00:06:12.253Z,27.20
2023-12-28T00:08:44.421Z,29.60
2023-12-28T00:11:14.436Z,29.30
2023-12-28T00:13:42.888Z,27.30
2023-12-28T00:16:11.366Z,29.20
2023-12-28T00:18:39.824Z,24.90
2023-12-28T00:21:08.372Z,24.80
2023-12-28T00:23:36.856Z,26.00
2023-12-28T00:26:05.345Z,29.50
2023-12-28T00:28:33.906Z,24.00
2023-12-28T00:31:02.501Z,25.60
2023-12-28T00:33:31.037Z,25.10
2023-12-28T00:35:59.581Z,25.00
2023-12-28T00:38:28.511Z,27.50
2023-12-28T00:40:57.244Z,28.20
2023-12-28T00:43:26.418Z,27.00
2023-12-28T00:45:55.130Z,24.10
2023-12-28T00:48:23.780Z,24.10
2023-12-28T00:50:52.300Z,25.40
2023-12-28T00:53:21.249Z,27.00
2023-12-28T00:55:50.840Z,24.20
2023-12-28T00:58:19.386Z,25.70
2023-12-28T01:00:47.932Z,25.10
2023-12-28T01:03:16.623Z,29.50
2023-12-28T01:05:48.652Z,24.20
2023-12-28T01:08:18.650Z,25.70
2023-12-28T01:10:47.171Z,26.30
2023-12-28T01:13:16.287Z,22.80
2023-12-28T01:15:45.877Z,24.20
2023-12-28T01:18:14.476Z,20.40
2023-12-28T01:20:43.620Z,24.80
2023-12-28T01:23:12.680Z,26.60
2023-12-28T01:25:41.365Z,24.40
2023-12-28T01:28:09.901Z,22.90
2023-12-28T01:30:38.444Z,23.60
2023-12-28T01:33:07.267Z,24.00
2023-12-28T01:35:35.900Z,25.10
2023-12-28T01:38:04.793Z,25.60
2023-12-28T01:40:33.483Z,28.70
2023-12-28T01:43:02.784Z,28.20
2023-12-28T01:45:31.639Z,24.00
2023-12-28T01:48:01.858Z,22.10
2023-12-28T01:50:32.980Z,24.10
2023-12-28T01:53:04.348Z,26.00
2023-12-28T01:55:34.668Z,22.00
2023-12-28T01:58:04.100Z,25.50
2023-12-28T02:00:33.401Z,26.10
2023-12-28T02:03:02.935Z,26.00
2023-12-28T02:05:31.782Z,23.20
2023-12-28T02:08:00.811Z,26.00
2023-12-28T02:10:29.517Z,27.50
2023-12-28T02:12:58.096Z,27.00
2023-12-28T02:15:26.608Z,23.70
2023-12-28T02:18:07.779Z,24.50
2023-12-28T02:20:37.659Z,25.20
2023-12-28T02:23:07.159Z,24.50
2023-12-28T02:25:35.559Z,25.50
2023-12-28T02:28:06.848Z,26.50
2023-12-28T02:30:35.427Z,24.00
2023-12-28T02:33:13.331Z,22.40
2023-12-28T02:35:53.203Z,28.20
2023-12-28T02:38:24.556Z,24.20
2023-12-28T02:40:54.276Z,27.60
2023-12-28T02:43:23.481Z,24.20
2023-12-28T02:45:53.922Z,23.60
2023-12-28T02:48:22.867Z,27.00
2023-12-28T02:50:51.518Z,27.00
2023-12-28T02:53:20.797Z,23.10
2023-12-28T02:55:49.383Z,25.30
2023-12-28T02:58:19.135Z,24.90
2023-12-28T03:00:47.784Z,24.70
2023-12-28T03:03:16.513Z,24.20
2023-12-28T03:05:45.310Z,24.30
2023-12-28T03:08:13.785Z,22.50
2023-12-28T03:10:42.308Z,25.20
2023-12-28T03:13:10.834Z,25.10
2023-12-28T03:15:39.310Z,22.90
2023-12-28T03:18:09.004Z,24.90
2023-12-28T03:20:38.770Z,21.00
2023-12-28T03:23:08.643Z,24.20
2023-12-28T03:25:37.301Z,21.80
2023-12-28T03:28:05.895Z,22.90
2023-12-28T03:30:34.501Z,22.60
2023-12-28T03:33:03.201Z,24.70
2023-12-28T03:35:31.811Z,24.10
2023-12-28T03:38:01.645Z,23.00
2023-12-28T03:40:30.143Z,27.20
2023-12-28T03:42:59.246Z,23.60
2023-12-28T03:45:28.050Z,22.90
2023-12-28T03:47:56.764Z,25.90
2023-12-28T03:50:26.072Z,28.00
2023-12-28T03:52:54.509Z,26.60
2023-12-28T03:55:22.905Z,25.30
2023-12-28T03:57:52.594Z,23.90
2023-12-28T04:00:22.471Z,27.70
2023-12-28T04:02:51.958Z,36.20
2023-12-28T04:05:22.375Z,28.80
2023-12-28T04:07:51.014Z,26.50
2023-12-28T04:10:32.018Z,23.40
2023-12-28T04:13:01.642Z,27.30
2023-12-28T04:15:31.522Z,28.50
2023-12-28T04:18:00.360Z,28.50
2023-12-28T04:20:34.719Z,26.10
2023-12-28T04:23:03.264Z,23.50
2023-12-28T04:25:31.675Z,21.30
2023-12-28T04:28:00.422Z,22.60
2023-12-28T04:30:29.440Z,20.00
2023-12-28T04:32:58.138Z,19.50
2023-12-28T04:35:27.532Z,20.20
2023-12-28T04:37:56.296Z,17.30
2023-12-28T04:40:25.170Z,17.40
2023-12-28T04:42:53.947Z,18.60
2023-12-28T04:45:23.801Z,14.70
2023-12-28T04:47:52.367Z,16.50
2023-12-28T04:50:21.933Z,16.50
2023-12-28T04:52:51.657Z,16.10
2023-12-28T04:55:20.201Z,17.70
2023-12-28T04:57:49.264Z,15.00
2023-12-28T05:00:19.779Z,16.10
2023-12-28T05:02:49.452Z,13.20
2023-12-28T05:05:18.586Z,14.70
2023-12-28T05:07:47.936Z,15.20
2023-12-28T05:10:16.643Z,14.10
2023-12-28T05:12:45.163Z,17.50
2023-12-28T05:15:14.622Z,20.10
2023-12-28T05:17:44.996Z,11.10
2023-12-28T05:20:14.452Z,12.90
2023-12-28T05:22:43.591Z,12.70
2023-12-28T05:25:12.209Z,11.90
2023-12-28T05:27:41.368Z,12.50
2023-12-28T05:30:10.616Z,12.10
2023-12-28T05:32:39.026Z,11.90
2023-12-28T05:35:08.099Z,11.10
2023-12-28T05:37:37.605Z,10.80
2023-12-28T05:40:06.662Z,14.10
2023-12-28T05:42:35.158Z,13.70
2023-12-28T05:45:03.893Z,11.60
2023-12-28T05:47:32.454Z,12.90
2023-12-28T05:50:01.550Z,15.30
2023-12-28T05:52:30.625Z,20.10
2023-12-28T05:54:59.976Z,13.90
2023-12-28T05:57:31.501Z,13.80
2023-12-28T06:00:00.164Z,13.70
2023-12-28T06:02:29.954Z,13.80
2023-12-28T06:04:58.729Z,10.50
2023-12-28T06:07:27.432Z,11.20
2023-12-28T06:09:57.178Z,12.60
2023-12-28T06:12:25.784Z,12.10
2023-12-28T06:14:54.308Z,11.60
2023-12-28T06:17:23.167Z,10.90
2023-12-28T06:19:54.644Z,13.30
2023-12-28T06:22:26.808Z,14.00
2023-12-28T06:24:56.861Z,13.40
2023-12-28T06:27:25.743Z,13.50
2023-12-28T06:29:54.264Z,12.10
2023-12-28T06:32:25.091Z,12.40
2023-12-28T06:34:54.035Z,12.20
2023-12-28T06:37:24.308Z,11.40
2023-12-28T06:39:54.386Z,13.80
2023-12-28T06:42:23.959Z,14.20
2023-12-28T06:44:52.819Z,12.20
2023-12-28T06:47:22.775Z,8.30
2023-12-28T06:49:51.767Z,9.80
2023-12-28T06:52:27.827Z,8.20
2023-12-28T06:54:58.128Z,9.40
2023-12-28T06:57:30.604Z,8.40
2023-12-28T07:00:01.295Z,10.50
2023-12-28T07:06:50.714Z,6.50
2023-12-28T07:09:19.366Z,11.60
2023-12-28T07:11:48.038Z,9.40
2023-12-28T07:14:16.517Z,8.90
2023-12-28T07:16:45.229Z,9.10
2023-12-28T07:19:13.832Z,9.90
2023-12-28T07:21:42.411Z,14.60
2023-12-28T07:24:10.992Z,10.40
2023-12-28T07:26:40.047Z,9.70
2023-12-28T07:29:08.725Z,10.60
2023-12-28T07:31:38.395Z,8.30
2023-12-28T07:34:07.411Z,8.30
2023-12-28T07:36:36.133Z,7.60
2023-12-28T07:39:05.627Z,9.60
2023-12-28T07:41:36.885Z,8.20
2023-12-28T07:44:05.837Z,9.40
2023-12-28T07:46:35.632Z,9.50
2023-12-28T07:49:04.220Z,11.30
2023-12-28T07:51:32.880Z,11.10
2023-12-28T07:54:01.508Z,8.60
2023-12-28T07:56:30.408Z,6.90
2023-12-28T07:58:59.134Z,8.60
2023-12-28T08:01:28.423Z,7.60
2023-12-28T08:03:57.179Z,8.20
2023-12-28T08:06:25.968Z,7.70
2023-12-28T08:08:56.214Z,7.50
2023-12-28T08:11:25.051Z,6.50
2023-12-28T08:13:53.517Z,7.10
2023-12-28T08:16:22.080Z,6.90
2023-12-28T08:18:51.285Z,9.00
2023-12-28T08:21:19.923Z,9.10
2023-12-28T08:23:48.206Z,6.70
2023-12-28T08:26:16.806Z,7.70
2023-12-28T08:28:47.631Z,7.20
2023-12-28T08:31:16.507Z,7.40
2023-12-28T08:33:45.079Z,7.30
2023-12-28T08:36:13.492Z,6.60
2023-12-28T08:38:42.053Z,7.40
2023-12-28T08:41:21.427Z,7.50
2023-12-28T08:43:50.010Z,6.70
2023-12-28T08:46:19.172Z,5.50
2023-12-28T08:48:48.676Z,6.80
2023-12-28T08:51:17.910Z,7.20
2023-12-28T08:53:46.572Z,7.50
2023-12-28T08:56:21.657Z,9.70
2023-12-28T08:58:51.335Z,6.70
2023-12-28T09:01:22.987Z,7.40
2023-12-28T09:03:53.186Z,5.60
2023-12-28T09:06:22.656Z,7.50
2023-12-28T09:08:53.300Z,6.90
2023-12-28T09:11:22.962Z,7.00
2023-12-28T09:13:52.594Z,7.80
2023-12-28T09:16:21.194Z,7.10
2023-12-28T09:18:52.078Z,7.50
2023-12-28T09:21:23.873Z,7.30
2023-12-28T09:23:52.572Z,6.60
2023-12-28T09:26:21.050Z,7.50
2023-12-28T09:28:49.632Z,6.90
2023-12-28T09:31:18.278Z,7.10
2023-12-28T09:33:46.939Z,8.00
2023-12-28T09:36:16.867Z,7.20
2023-12-28T09:38:45.603Z,8.00
2023-12-28T09:41:23.606Z,7.80
2023-12-28T09:43:57.944Z,6.20
2023-12-28T09:46:28.037Z,6.70
2023-12-28T09:49:12.402Z,7.70
2023-12-28T09:51:41.553Z,6.40
2023-12-28T09:54:10.299Z,7.00
2023-12-28T09:56:39.447Z,6.80
2023-12-28T09:59:08.700Z,6.60
2023-12-28T10:01:37.849Z,7.00
2023-12-28T10:04:06.862Z,6.70
2023-12-28T10:06:36.211Z,6.60
2023-12-28T10:09:04.597Z,8.70
2023-12-28T10:11:34.124Z,7.50
2023-12-28T10:14:03.513Z,7.00
2023-12-28T10:16:31.958Z,8.30
2023-12-28T10:19:00.708Z,6.00
2023-12-28T10:21:30.704Z,6.80
2023-12-28T10:23:59.253Z,7.60
2023-12-28T10:26:28.969Z,6.80
2023-12-28T10:29:04.646Z,6.90
2023-12-28T10:31:34.023Z,5.80
2023-12-28T10:34:04.298Z,6.70
2023-12-28T10:36:38.138Z,5.80
2023-12-28T10:39:11.253Z,5.50
2023-12-28T10:41:42.557Z,6.80
2023-12-28T10:44:18.916Z,10.60
2023-12-28T10:46:52.497Z,8.70
2023-12-28T10:49:27.130Z,5.90
2023-12-28T10:51:57.017Z,7.00
2023-12-28T10:54:41.470Z,6.00
2023-12-28T10:57:29.221Z,6.30
2023-12-28T11:00:11.561Z,8.10
2023-12-28T11:02:46.246Z,9.80
2023-12-28T11:05:17.698Z,7.80
2023-12-28T11:07:49.716Z,7.90
2023-12-28T11:10:19.903Z,9.50
2023-12-28T11:12:54.539Z,9.10
2023-12-28T11:15:25.186Z,9.90
2023-12-28T11:17:54.510Z,9.80
2023-12-28T11:20:23.760Z,9.80
2023-12-28T11:22:53.357Z,8.30
2023-12-28T11:25:22.322Z,8.10
2023-12-28T11:27:51.184Z,9.20
2023-12-28T11:30:20.238Z,8.20
2023-12-28T11:32:48.807Z,9.20
2023-12-28T11:35:18.453Z,8.80
2023-12-28T11:37:51.378Z,9.20
2023-12-28T11:40:22.585Z,10.00
2023-12-28T11:42:52.977Z,9.60
2023-12-28T11:45:24.031Z,7.70
2023-12-28T11:48:02.734Z,9.70
2023-12-28T11:50:32.948Z,6.50
2023-12-28T11:53:01.821Z,9.20
2023-12-28T11:55:30.839Z,9.40
2023-12-28T11:58:01.972Z,8.00
2023-12-28T12:00:30.667Z,8.20
2023-12-28T12:02:59.590Z,9.40
2023-12-28T12:05:29.797Z,9.00
2023-12-28T12:07:58.629Z,9.60
2023-12-28T12:10:28.098Z,9.10
2023-12-28T12:12:57.342Z,10.30
2023-12-28T12:15:30.341Z,8.80
2023-12-28T12:17:59.632Z,8.20
2023-12-28T12:20:30.451Z,8.90
2023-12-28T12:23:01.083Z,7.60
2023-12-28T12:25:30.428Z,12.10
2023-12-28T12:27:59.187Z,6.70
2023-12-28T12:30:28.011Z,11.10
2023-12-28T12:32:57.658Z,9.10
2023-12-28T12:35:26.822Z,7.80
2023-12-28T12:37:55.547Z,8.00
2023-12-28T12:40:24.602Z,9.20
2023-12-28T12:42:58.102Z,8.90
2023-12-28T12:45:27.246Z,8.50
2023-12-28T12:47:55.890Z,10.90
2023-12-28T12:50:24.477Z,9.40
2023-12-28T12:52:52.923Z,9.30
2023-12-28T12:55:21.471Z,9.10
2023-12-28T12:57:52.768Z,10.60
2023-12-28T13:00:22.597Z,7.80
2023-12-28T13:02:57.001Z,9.00
2023-12-28T13:05:27.180Z,8.10
2023-12-28T13:07:55.988Z,8.30
2023-12-28T13:10:24.494Z,10.60
2023-12-28T13:12:53.527Z,7.30
2023-12-28T13:15:22.646Z,10.40
2023-12-28T13:17:51.244Z,10.60
2023-12-28T13:20:27.845Z,8.80
2023-12-28T13:22:56.422Z,7.40
2023-12-28T13:25:24.942Z,8.60
2023-12-28T13:42:29.100Z,7.40
2023-12-28T13:44:57.617Z,8.50
2023-12-28T13:47:26.830Z,8.80
2023-12-28T13:49:55.948Z,11.70
2023-12-28T13:52:24.495Z,12.60
2023-12-28T13:54:53.276Z,11.80
2023-12-28T13:57:21.712Z,11.80
2023-12-28T13:59:50.473Z,10.30
2023-12-28T14:02:19.117Z,9.60
2023-12-28T14:04:48.244Z,10.40
2023-12-28T14:07:19.829Z,11.40
2023-12-28T14:09:52.078Z,10.70
2023-12-28T14:12:20.802Z,14.80
2023-12-28T14:14:49.504Z,12.30
2023-12-28T14:17:20.892Z,11.50
2023-12-28T14:19:49.539Z,11.30
2023-12-28T14:22:18.379Z,10.70
2023-12-28T14:24:47.345Z,11.80
2023-12-28T14:27:16.109Z,9.30
2023-12-28T14:29:44.998Z,10.40
2023-12-28T14:32:13.826Z,10.20
2023-12-28T14:34:42.677Z,11.70
2023-12-28T14:37:11.352Z,11.90
2023-12-28T14:39:40.535Z,10.60
2023-12-28T14:42:09.207Z,13.20
2023-12-28T14:44:38.406Z,14.20
2023-12-28T14:47:08.381Z,13.00
2023-12-28T14:49:38.409Z,12.80
2023-12-28T14:52:07.204Z,14.20
2023-12-28T14:54:36.150Z,14.30
2023-12-28T14:57:04.989Z,12.90
2023-12-28T14:59:34.082Z,13.90
2023-12-28T15:02:02.620Z,13.20
2023-12-28T15:04:31.215Z,14.80
2023-12-28T15:07:00.824Z,15.10
2023-12-28T15:09:29.386Z,13.80
2023-12-28T15:11:59.355Z,14.70
2023-12-28T15:14:28.517Z,12.10
2023-12-28T15:16:57.303Z,13.30
2023-12-28T15:19:28.648Z,16.20
2023-12-28T15:21:57.805Z,12.70
2023-12-28T15:24:26.802Z,11.70
2023-12-28T15:26:55.301Z,14.90
2023-12-28T15:29:23.703Z,13.80
2023-12-28T15:31:52.704Z,12.20
2023-12-28T15:34:21.520Z,12.90
2023-12-28T15:36:50.115Z,12.70
2023-12-28T15:39:18.876Z,12.00
2023-12-28T15:41:48.891Z,11.20
2023-12-28T15:44:17.771Z,11.40
2023-12-28T15:46:46.512Z,12.70
2023-12-28T15:49:16.455Z,12.60
2023-12-28T15:51:49.507Z,11.50
2023-12-28T15:54:18.805Z,14.70
2023-12-28T15:56:47.812Z,14.80
2023-12-28T15:59:16.519Z,13.70
2023-12-28T16:01:45.164Z,14.30
2023-12-28T16:04:17.084Z,13.20
2023-12-28T16:06:56.711Z,13.40
2023-12-28T16:09:28.996Z,15.40
2023-12-28T16:11:58.071Z,15.70
2023-12-28T16:14:27.606Z,17.20
2023-12-28T16:16:56.463Z,18.70
2023-12-28T16:19:27.328Z,17.60
2023-12-28T16:21:56.283Z,18.80
2023-12-28T16:24:24.849Z,17.60
2023-12-28T16:26:53.720Z,17.30
2023-12-28T16:29:22.328Z,17.20
2023-12-28T16:31:51.606Z,16.40
2023-12-28T16:34:20.496Z,16.30
2023-12-28T16:37:12.996Z,17.70
2023-12-28T16:39:45.194Z,19.30
2023-12-28T16:42:13.847Z,15.50
2023-12-28T16:44:44.779Z,19.40
2023-12-28T16:47:13.625Z,20.80
2023-12-28T16:49:42.531Z,20.20
2023-12-28T16:52:15.008Z,20.20
2023-12-28T16:54:44.030Z,16.90
2023-12-28T16:57:13.887Z,19.40
2023-12-28T16:59:45.467Z,16.60
2023-12-28T17:02:17.376Z,16.30
2023-12-28T17:04:46.324Z,16.80
2023-12-28T17:07:14.986Z,15.10
2023-12-28T17:09:45.693Z,16.50
2023-12-28T17:12:24.525Z,17.30
2023-12-28T17:14:55.198Z,16.40
2023-12-28T17:17:24.446Z,18.00
2023-12-28T17:19:54.566Z,15.60
2023-12-28T17:22:27.195Z,16.30
2023-12-28T17:25:08.574Z,23.70
2023-12-28T17:28:06.953Z,16.60
2023-12-28T17:30:37.632Z,20.20
2023-12-28T17:33:07.617Z,16.00
2023-12-28T17:35:36.487Z,19.30
2023-12-28T17:38:07.003Z,19.40
2023-12-28T17:40:36.143Z,16.40
2023-12-28T17:43:17.748Z,14.30
2023-12-28T17:46:06.893Z,14.50
2023-12-28T17:48:41.651Z,14.70
2023-12-28T17:51:18.196Z,13.70
2023-12-28T17:53:47.330Z,14.10
2023-12-28T17:56:21.879Z,17.00
2023-12-28T17:58:50.350Z,13.00
2023-12-28T18:01:19.036Z,11.60
2023-12-28T18:03:50.904Z,13.00
2023-12-28T18:06:20.119Z,13.60
2023-12-28T18:08:48.676Z,10.70
2023-12-28T18:11:17.263Z,12.00
2023-12-28T18:13:46.076Z,13.40
2023-12-28T18:16:15.302Z,13.10
2023-12-28T18:18:44.187Z,15.80
2023-12-28T18:21:15.776Z,13.40
2023-12-28T18:23:44.532Z,14.60
2023-12-28T18:26:13.423Z,11.90
2023-12-28T18:28:42.034Z,15.20
2023-12-28T18:31:11.457Z,15.10
2023-12-28T18:33:40.261Z,17.20
2023-12-28T18:36:11.106Z,14.30
2023-12-28T18:38:41.209Z,15.10
2023-12-28T18:41:10.173Z,13.40
2023-12-28T18:43:40.094Z,15.00
2023-12-28T18:46:11.044Z,15.00
2023-12-28T18:48:40.353Z,18.90
2023-12-28T18:51:10.759Z,18.00
2023-12-28T18:53:50.619Z,19.50
2023-12-28T18:56:22.485Z,21.50
2023-12-28T18:58:51.882Z,21.00
2023-12-28T19:01:21.062Z,20.70
2023-12-28T19:03:49.789Z,19.30
2023-12-28T19:06:18.506Z,22.60
2023-12-28T19:08:47.163Z,21.80
2023-12-28T19:11:17.258Z,22.20
2023-12-28T19:13:47.531Z,21.40
2023-12-28T19:16:24.327Z,24.60
2023-12-28T19:18:53.791Z,23.60
2023-12-28T19:21:26.162Z,21.60
2023-12-28T19:23:56.411Z,24.30
2023-12-28T19:26:26.130Z,20.70
2023-12-28T19:28:59.731Z,20.80
2023-12-28T19:31:28.481Z,19.40
2023-12-28T19:33:58.784Z,14.10
2023-12-28T19:36:27.510Z,19.40
2023-12-28T19:38:57.022Z,18.80
2023-12-28T19:41:25.621Z,17.30
2023-12-28T19:43:55.332Z,21.00
2023-12-28T19:46:24.849Z,19.80
2023-12-28T19:48:55.480Z,17.10
2023-12-28T19:51:28.522Z,18.70
2023-12-28T19:53:58.445Z,18.80
2023-12-28T19:56:27.129Z,18.40
2023-12-28T19:58:58.991Z,20.50
2023-12-28T20:01:28.272Z,17.50
2023-12-28T20:03:57.170Z,18.40
2023-12-28T20:06:25.850Z,17.10
2023-12-28T20:09:07.588Z,19.80
2023-12-28T20:11:36.363Z,18.80
2023-12-28T20:15:43.779Z,20.20
2023-12-28T20:17:26.479Z,18.90
2023-12-28T20:20:12.306Z,18.30
2023-12-28T20:22:41.120Z,22.00
2023-12-28T20:25:15.000Z,19.00
2023-12-28T20:27:45.298Z,21.70
2023-12-28T20:30:14.361Z,20.50
2023-12-28T20:32:43.764Z,20.70
2023-12-28T20:35:16.050Z,20.60
2023-12-28T20:38:01.726Z,21.20
2023-12-28T20:40:31.559Z,20.80
2023-12-28T20:43:00.194Z,21.60
2023-12-28T20:45:28.813Z,19.90
2023-12-28T20:47:58.164Z,21.80
2023-12-28T20:50:27.485Z,20.60
2023-12-28T20:52:56.183Z,21.60
2023-12-28T20:55:24.907Z,20.40
2023-12-28T20:57:54.137Z,19.60
2023-12-28T21:00:23.012Z,21.50
2023-12-28T21:02:51.658Z,18.80
2023-12-28T21:05:22.061Z,20.00
2023-12-28T21:07:51.130Z,20.10
2023-12-28T21:10:19.794Z,15.80
2023-12-28T21:12:53.547Z,19.00
2023-12-28T21:15:21.995Z,18.20
2023-12-28T21:17:54.071Z,17.10
2023-12-28T21:20:24.288Z,18.00
2023-12-28T21:22:53.654Z,16.60
2023-12-28T21:25:22.247Z,16.90
2023-12-28T21:27:50.734Z,18.30
2023-12-28T21:30:19.608Z,17.60
2023-12-28T21:32:48.293Z,15.60
2023-12-28T21:35:17.127Z,16.40
2023-12-28T21:37:45.840Z,17.60
2023-12-28T21:40:14.878Z,16.80
2023-12-28T21:42:44.402Z,14.70
2023-12-28T21:45:15.426Z,14.80
2023-12-28T21:47:44.285Z,14.70
2023-12-28T21:50:14.865Z,16.10
2023-12-28T21:52:43.528Z,15.20
2023-12-28T21:55:12.158Z,14.30
2023-12-28T21:57:40.816Z,14.50
2023-12-28T22:00:10.058Z,15.50
2023-12-28T22:02:40.679Z,14.50
2023-12-28T22:05:10.258Z,13.70
2023-12-28T22:07:40.402Z,12.50
2023-12-28T22:10:11.212Z,13.30
2023-12-28T22:12:39.869Z,12.90
2023-12-28T22:15:08.929Z,12.20
2023-12-28T22:17:37.440Z,14.40
2023-12-28T22:20:06.611Z,12.40
2023-12-28T22:22:35.646Z,11.80
2023-12-28T22:25:04.976Z,12.60
2023-12-28T22:27:33.893Z,13.20
2023-12-28T22:30:02.565Z,14.10
2023-12-28T22:32:31.632Z,13.20
2023-12-28T22:35:00.658Z,13.80
2023-12-28T22:37:29.391Z,12.70
2023-12-28T22:39:59.328Z,12.80
2023-12-28T22:42:31.169Z,13.60
2023-12-28T22:45:02.311Z,13.10
2023-12-28T22:47:31.390Z,13.10
2023-12-28T22:50:27.720Z,13.70
2023-12-28T22:52:56.337Z,13.90
2023-12-28T22:55:25.144Z,13.40
2023-12-28T22:57:56.883Z,15.30
2023-12-28T23:00:30.362Z,12.40
2023-12-28T23:02:59.582Z,13.90
2023-12-28T23:05:32.169Z,12.80
2023-12-28T23:08:01.928Z,15.90
2023-12-28T23:10:30.758Z,14.10
2023-12-28T23:13:02.211Z,15.20
2023-12-28T23:15:31.642Z,16.00
2023-12-28T23:18:01.273Z,16.60
2023-12-28T23:20:30.371Z,13.70
2023-12-28T23:22:58.817Z,12.80
2023-12-28T23:25:28.074Z,15.80
2023-12-28T23:27:56.560Z,14.40
2023-12-28T23:30:25.080Z,13.00
2023-12-28T23:32:53.931Z,14.70
2023-12-28T23:35:22.728Z,13.00
2023-12-28T23:37:51.081Z,14.00
2023-12-28T23:40:19.969Z,12.30
2023-12-28T23:42:48.540Z,17.10
2023-12-28T23:45:17.142Z,15.00
2023-12-28T23:47:45.613Z,12.00
2023-12-28T23:50:14.501Z,12.90
2023-12-28T23:52:42.990Z,11.80
2023-12-28T23:55:11.686Z,12.70
2023-12-28T23:57:40.393Z,12.80
